Time;durP1;ratioP1;P1;durP2;ratioP2;P2;SDS_P1;SDS_P2;PMS_P1;PMS_P2;Temp;Humidity;BMP_temperature;BMP_pressure;BME280_temperature;BME280_humidity;BME280_pressure;Samples;Min_cycle;Max_cycle;Signal;HPM_P1;HPM_P2
2023/05/20 00:01:37;;;;;;;23.00;16.80;;;;;;;11.12;96.57;100515.70;437344;1253;140293;-71
2023/05/20 00:11:43;;;;;;;21.00;17.70;;;;;;;11.09;96.82;100506.75;437106;1253;140293;-72
2023/05/20 00:21:49;;;;;;;18.00;15.50;;;;;;;11.05;96.99;100501.32;436883;1253;140975;-72
2023/05/20 00:31:54;;;;;;;21.70;16.80;;;;;;;11.05;97.14;100506.05;437210;1253;139650;-71
2023/05/20 00:42:02;;;;;;;18.50;16.50;;;;;;;11.05;97.27;100501.66;436951;1254;141462;-73
2023/05/20 00:52:09;;;;;;;20.70;17.60;;;;;;;11.05;97.42;100507.48;437280;1253;141038;-72
2023/05/20 01:02:15;;;;;;;20.50;16.00;;;;;;;11.06;97.49;100503.23;437843;1253;139744;-72
2023/05/20 01:12:26;;;;;;;21.30;17.10;;;;;;;11.05;97.62;100504.48;437470;1250;141080;-72
2023/05/20 01:22:32;;;;;;;20.70;17.60;;;;;;;11.03;97.66;100499.84;436959;1253;140167;-73
2023/05/20 01:32:43;;;;;;;23.50;21.00;;;;;;;11.03;97.91;100498.63;437237;1251;139325;-72
2023/05/20 01:42:51;;;;;;;28.10;20.70;;;;;;;11.01;98.11;100494.19;437775;1253;143003;-72
2023/05/20 01:52:58;;;;;;;20.70;18.50;;;;;;;11.00;98.31;100488.64;437626;1253;140446;-72
2023/05/20 02:03:04;;;;;;;27.20;22.10;;;;;;;10.98;98.59;100479.98;437522;1252;139315;-72
2023/05/20 02:13:09;;;;;;;23.90;19.20;;;;;;;10.96;98.75;100473.93;437281;1253;139944;-72
2023/05/20 02:23:15;;;;;;;27.80;19.90;;;;;;;10.96;99.01;100467.95;437255;1252;139840;-72
2023/05/20 02:33:21;;;;;;;35.60;23.70;;;;;;;10.97;99.26;100461.10;437933;1253;139187;-71
2023/05/20 02:43:28;;;;;;;41.10;23.50;;;;;;;10.99;99.61;100463.79;437860;1251;140048;-71
2023/05/20 02:53:33;;;;;;;34.80;21.30;;;;;;;10.98;99.84;100467.85;437339;1253;140743;-72
2023/05/20 03:03:39;;;;;;;37.90;23.40;;;;;;;10.95;100.00;100474.48;436913;1253;141619;-71
2023/05/20 03:13:45;;;;;;;39.50;23.20;;;;;;;10.96;100.00;100474.46;436692;1253;140527;-70
2023/05/20 03:23:51;;;;;;;37.70;24.50;;;;;;;11.03;100.00;100471.48;436628;1254;139820;-71
2023/05/20 03:33:57;;;;;;;34.40;21.30;;;;;;;11.12;100.00;100471.52;436584;1253;140992;-71
2023/05/20 03:44:03;;;;;;;27.70;20.90;;;;;;;11.20;100.00;100487.41;436927;1253;140413;-72
2023/05/20 03:54:08;;;;;;;25.60;18.20;;;;;;;11.28;99.69;100491.05;436818;1252;141211;-72
2023/05/20 04:04:14;;;;;;;27.50;18.80;;;;;;;11.37;99.14;100497.04;436657;1251;141486;-71
2023/05/20 04:14:20;;;;;;;24.30;18.90;;;;;;;11.45;98.80;100513.13;436375;1251;140086;-71
2023/05/20 04:24:26;;;;;;;22.50;18.90;;;;;;;11.52;98.35;100511.85;435848;1252;140838;-71
2023/05/20 04:34:33;;;;;;;20.40;16.30;;;;;;;11.62;97.84;100509.58;436283;1251;140799;-70
2023/05/20 04:44:39;;;;;;;20.50;18.40;;;;;;;11.72;97.22;100503.98;436534;1254;141552;-71
2023/05/20 04:54:47;;;;;;;19.00;16.20;;;;;;;11.84;96.91;100499.46;436407;1251;140120;-71
2023/05/20 05:04:53;;;;;;;18.60;15.50;;;;;;;11.98;96.58;100503.08;436502;1250;139481;-72
2023/05/20 05:14:59;;;;;;;19.10;15.60;;;;;;;12.18;96.22;100507.83;436331;1251;139905;-71
2023/05/20 05:25:05;;;;;;;17.00;14.10;;;;;;;12.33;95.64;100513.98;436257;1254;140090;-71
2023/05/20 05:35:11;;;;;;;18.30;15.70;;;;;;;12.55;95.19;100520.33;436226;1251;140653;-72
2023/05/20 05:45:17;;;;;;;18.60;15.10;;;;;;;12.90;94.73;100519.89;436435;1254;139193;-72
2023/05/20 05:55:23;;;;;;;16.40;14.50;;;;;;;13.12;93.43;100530.33;436750;1251;141969;-72
2023/05/20 06:05:30;;;;;;;15.20;13.70;;;;;;;13.18;93.00;100535.09;436190;1254;140043;-73
2023/05/20 06:15:36;;;;;;;16.30;13.20;;;;;;;13.43;92.76;100537.51;436653;1251;140351;-72
2023/05/20 06:25:42;;;;;;;13.80;11.60;;;;;;;13.67;92.08;100539.05;436518;1253;140418;-71
2023/05/20 06:35:48;;;;;;;14.70;9.90;;;;;;;13.91;91.44;100531.95;436373;1251;140210;-72
2023/05/20 06:45:54;;;;;;;13.20;11.60;;;;;;;13.98;90.69;100521.29;436532;1253;140711;-70
2023/05/20 06:56:00;;;;;;;12.40;10.00;;;;;;;14.19;90.74;100515.39;436623;1251;140888;-72
2023/05/20 07:06:06;;;;;;;14.90;10.90;;;;;;;14.80;89.75;100510.02;436554;1250;140483;-70
2023/05/20 07:16:12;;;;;;;12.60;9.80;;;;;;;15.41;88.41;100507.47;436849;1248;141325;-71
2023/05/20 07:26:18;;;;;;;13.50;10.50;;;;;;;15.90;86.72;100499.89;436982;1250;150937;-70
2023/05/20 07:36:24;;;;;;;12.10;9.60;;;;;;;16.00;85.31;100495.08;436892;1251;139482;-68
2023/05/20 07:46:30;;;;;;;12.60;9.70;;;;;;;16.50;84.47;100500.27;436887;1250;140215;-65
2023/05/20 07:56:36;;;;;;;15.00;9.60;;;;;;;16.75;82.93;100504.27;437041;1251;139134;-67
2023/05/20 08:06:43;;;;;;;11.40;9.60;;;;;;;16.36;82.39;100496.34;436959;1252;139759;-58
2023/05/20 08:16:49;;;;;;;13.70;10.80;;;;;;;17.21;82.93;100483.25;436711;1251;140212;-58
2023/05/20 08:26:58;;;;;;;12.00;9.90;;;;;;;18.67;80.06;100473.40;437547;1253;141275;-58
2023/05/20 08:37:04;;;;;;;10.00;8.30;;;;;;;19.60;79.31;100462.46;436929;1251;139696;-61
2023/05/20 08:47:10;;;;;;;9.90;9.00;;;;;;;20.72;77.30;100443.89;436704;1253;140699;-62
2023/05/20 08:57:16;;;;;;;11.50;9.50;;;;;;;21.73;72.41;100454.05;436772;1253;139508;-61
2023/05/20 09:07:29;;;;;;;11.10;9.90;;;;;;;21.60;70.83;100455.25;437207;1250;140009;-61
2023/05/20 09:17:37;;;;;;;12.60;10.80;;;;;;;21.07;70.09;100453.66;437045;1253;139535;-60
2023/05/20 09:27:43;;;;;;;11.90;10.60;;;;;;;20.72;70.14;100445.16;436986;1253;139271;-62
2023/05/20 09:37:51;;;;;;;12.20;10.40;;;;;;;21.07;69.62;100435.89;436820;1250;139700;-61
2023/05/20 09:47:59;;;;;;;11.70;10.10;;;;;;;21.64;68.84;100434.04;437005;1253;138626;-61
2023/05/20 09:58:05;;;;;;;12.70;11.00;;;;;;;21.70;67.56;100435.42;437206;1252;138833;-60
2023/05/20 10:08:36;;;;;;;11.70;10.70;;;;;;;21.00;67.95;100435.65;437656;1253;139380;-60
2023/05/20 10:18:54;;;;;;;16.40;11.30;;;;;;;20.95;68.21;100427.20;437156;1253;140292;-62
2023/05/20 10:29:01;;;;;;;12.40;11.20;;;;;;;21.30;68.45;100428.55;437492;1250;139528;-61
2023/05/20 10:39:06;;;;;;;12.10;10.20;;;;;;;21.65;67.92;100425.21;437225;1251;138965;-64
2023/05/20 10:49:20;;;;;;;11.50;10.30;;;;;;;21.92;67.41;100412.38;437739;1252;140192;-63
2023/05/20 10:59:32;;;;;;;12.00;10.80;;;;;;;21.82;67.46;100401.33;437204;1250;139689;-65
2023/05/20 11:09:38;;;;;;;13.70;11.00;;;;;;;22.19;67.45;100388.01;436506;1248;139573;-63
2023/05/20 11:19:45;;;;;;;14.70;11.10;;;;;;;22.40;66.56;100379.13;437073;1253;139121;-63
2023/05/20 11:29:52;;;;;;;11.80;10.70;;;;;;;22.67;66.43;100361.28;442956;1250;140021;-63
2023/05/20 11:40:08;;;;;;;11.30;10.10;;;;;;;23.01;65.89;100354.17;437639;1248;139760;-64
2023/05/20 11:50:18;;;;;;;12.00;10.30;;;;;;;23.01;65.12;100349.02;438124;1248;139177;-63
2023/05/20 12:00:25;;;;;;;10.30;9.20;;;;;;;23.05;65.20;100342.32;437910;1252;139871;-63
2023/05/20 12:10:36;;;;;;;12.20;10.10;;;;;;;22.90;64.94;100345.28;437026;1253;138825;-64
2023/05/20 12:20:42;;;;;;;13.10;10.40;;;;;;;22.59;65.00;100332.42;437366;1250;139117;-63
2023/05/20 12:30:48;;;;;;;12.40;11.10;;;;;;;22.20;65.41;100319.05;436601;1253;138907;-62
2023/05/20 12:40:54;;;;;;;11.60;10.40;;;;;;;22.14;65.92;100314.13;436817;1251;139400;-63
2023/05/20 12:51:00;;;;;;;10.90;9.00;;;;;;;22.13;65.62;100306.93;436638;1253;138857;-64
2023/05/20 13:01:06;;;;;;;11.20;9.20;;;;;;;21.97;65.72;100305.39;439402;1253;138295;-63
2023/05/20 13:11:11;;;;;;;10.80;9.30;;;;;;;21.87;65.54;100290.53;437067;1252;138761;-63
2023/05/20 13:21:17;;;;;;;9.30;8.50;;;;;;;21.91;65.59;100272.42;437536;1253;139431;-64
2023/05/20 13:31:24;;;;;;;8.90;8.00;;;;;;;22.20;64.98;100271.67;437969;1253;138301;-63
2023/05/20 13:41:30;;;;;;;10.10;8.80;;;;;;;22.27;64.37;100259.95;437522;1253;139945;-64
2023/05/20 13:51:36;;;;;;;9.30;8.30;;;;;;;22.24;63.95;100257.66;437214;1251;139007;-64
2023/05/20 14:01:44;;;;;;;9.50;8.50;;;;;;;22.39;63.46;100254.43;437143;1251;138375;-64
2023/05/20 14:11:50;;;;;;;9.50;7.90;;;;;;;22.63;63.31;100244.14;436963;1251;138090;-65
2023/05/20 14:21:57;;;;;;;10.10;7.30;;;;;;;22.35;62.89;100231.94;436936;1251;139140;-64
2023/05/20 14:32:03;;;;;;;9.50;7.60;;;;;;;22.30;62.61;100224.09;437962;1253;138936;-64
2023/05/20 14:42:09;;;;;;;9.50;7.60;;;;;;;22.58;62.63;100214.77;437972;1251;138851;-65
2023/05/20 14:52:15;;;;;;;8.50;7.60;;;;;;;22.59;62.31;100214.50;437081;1251;139240;-64
2023/05/20 15:02:21;;;;;;;10.90;8.10;;;;;;;22.31;62.05;100196.91;437431;1253;139932;-64
2023/05/20 15:12:27;;;;;;;13.70;8.10;;;;;;;22.34;62.30;100187.63;436957;1253;140250;-64
2023/05/20 15:22:33;;;;;;;9.40;6.90;;;;;;;22.55;62.38;100175.88;436900;1253;138866;-64
2023/05/20 15:32:40;;;;;;;8.80;6.80;;;;;;;22.60;61.00;100174.14;437277;1251;139329;-64
2023/05/20 15:42:46;;;;;;;7.20;6.50;;;;;;;22.77;60.61;100165.60;437400;1251;139114;-63
2023/05/20 15:52:52;;;;;;;7.60;6.70;;;;;;;22.85;60.91;100161.53;437040;1251;138852;-63
2023/05/20 16:02:58;;;;;;;9.50;6.50;;;;;;;22.75;61.07;100164.16;437256;1253;138899;-63
2023/05/20 16:13:04;;;;;;;9.60;7.10;;;;;;;23.07;60.66;100165.02;436471;1252;139585;-63
2023/05/20 16:23:11;;;;;;;8.30;6.80;;;;;;;22.99;59.41;100158.67;439466;1250;139662;-63
2023/05/20 16:33:17;;;;;;;11.00;7.20;;;;;;;22.79;58.54;100158.70;438152;1251;138226;-64
2023/05/20 16:43:23;;;;;;;8.60;7.70;;;;;;;22.71;59.15;100154.63;437040;1253;140330;-64
2023/05/20 16:53:29;;;;;;;7.60;7.00;;;;;;;22.71;59.72;100147.42;437264;1251;138969;-65
2023/05/20 17:03:36;;;;;;;9.10;6.60;;;;;;;22.72;60.12;100138.63;437031;1253;138740;-65
2023/05/20 17:13:42;;;;;;;6.80;6.20;;;;;;;23.14;59.50;100142.83;437199;1251;138123;-64
2023/05/20 17:23:48;;;;;;;8.40;7.60;;;;;;;22.74;59.16;100148.87;437246;1253;139028;-63
2023/05/20 17:33:54;;;;;;;6.50;6.00;;;;;;;22.42;59.51;100144.27;436952;1253;138836;-64
2023/05/20 17:44:00;;;;;;;7.80;7.10;;;;;;;22.11;60.12;100148.17;437072;1253;139255;-64
2023/05/20 17:54:06;;;;;;;8.90;7.90;;;;;;;21.78;60.86;100154.16;437249;1251;138668;-63
2023/05/20 18:04:12;;;;;;;7.70;7.00;;;;;;;21.52;59.68;100157.99;437165;1251;138992;-63
2023/05/20 18:14:21;;;;;;;9.00;8.10;;;;;;;21.21;58.71;100157.07;436871;1253;139085;-64
2023/05/20 18:24:27;;;;;;;8.60;7.70;;;;;;;20.86;59.58;100160.62;437541;1249;139907;-65
2023/05/20 18:34:33;;;;;;;9.40;8.60;;;;;;;20.50;60.82;100153.96;437771;1253;138473;-65
2023/05/20 18:44:39;;;;;;;11.50;9.10;;;;;;;20.11;61.94;100157.17;437531;1253;139497;-64
2023/05/20 18:54:44;;;;;;;10.60;9.60;;;;;;;19.73;63.01;100159.80;437113;1253;139353;-64
2023/05/20 19:04:50;;;;;;;10.60;9.50;;;;;;;19.40;63.98;100164.57;437085;1253;139225;-64
2023/05/20 19:14:56;;;;;;;11.00;9.60;;;;;;;19.12;65.14;100160.58;437134;1253;139218;-63
2023/05/20 19:25:04;;;;;;;10.10;9.20;;;;;;;18.82;66.03;100168.68;437181;1253;139201;-62
2023/05/20 19:35:10;;;;;;;9.50;8.70;;;;;;;18.57;66.78;100163.66;437347;1251;139747;-63
2023/05/20 19:45:16;;;;;;;11.10;9.70;;;;;;;18.35;67.59;100168.40;437484;1253;139876;-64
2023/05/20 19:55:22;;;;;;;15.00;11.40;;;;;;;18.16;68.37;100168.93;436723;1253;139635;-63
2023/05/20 20:05:29;;;;;;;10.90;9.70;;;;;;;18.04;68.94;100168.73;436665;1253;139533;-64
2023/05/20 20:15:35;;;;;;;11.70;10.00;;;;;;;17.93;69.73;100168.28;437293;1251;140319;-70
2023/05/20 20:25:42;;;;;;;12.20;9.00;;;;;;;17.77;70.26;100163.02;437732;1253;139853;-69
2023/05/20 20:35:49;;;;;;;10.70;9.60;;;;;;;17.58;71.07;100164.86;437356;1253;139844;-69
2023/05/20 20:45:55;;;;;;;10.10;9.10;;;;;;;17.41;71.87;100178.98;437441;1254;139748;-68
2023/05/20 20:56:00;;;;;;;14.00;10.40;;;;;;;17.16;72.74;100189.00;437453;1251;139154;-67
2023/05/20 21:06:07;;;;;;;10.30;9.50;;;;;;;16.94;73.93;100195.31;437245;1251;140032;-68
2023/05/20 21:16:13;;;;;;;10.70;9.60;;;;;;;16.76;74.68;100194.12;437500;1253;139067;-67
2023/05/20 21:26:20;;;;;;;12.50;11.00;;;;;;;16.61;75.62;100191.62;437179;1251;139286;-66
2023/05/20 21:36:26;;;;;;;11.70;10.50;;;;;;;16.50;76.08;100195.33;436962;1253;140783;-68
2023/05/20 21:46:32;;;;;;;11.70;9.40;;;;;;;16.36;76.43;100198.70;436726;1251;139703;-67
2023/05/20 21:56:38;;;;;;;10.40;9.30;;;;;;;16.21;76.48;100193.79;436969;1252;139710;-67
2023/05/20 22:06:44;;;;;;;10.20;7.90;;;;;;;16.06;76.84;100193.71;436914;1254;141274;-67
2023/05/20 22:16:50;;;;;;;9.40;6.90;;;;;;;15.98;76.83;100189.29;436927;1251;139626;-67
2023/05/20 22:26:56;;;;;;;9.10;6.80;;;;;;;15.87;76.58;100193.42;437197;1253;138866;-67
2023/05/20 22:37:03;;;;;;;7.90;6.30;;;;;;;15.71;76.39;100191.63;437168;1253;139506;-67
2023/05/20 22:47:08;;;;;;;8.40;5.80;;;;;;;15.64;75.74;100188.44;437074;1251;139482;-68
2023/05/20 22:57:15;;;;;;;10.20;5.80;;;;;;;15.63;74.90;100191.70;437052;1251;139911;-64
2023/05/20 23:07:22;;;;;;;6.10;5.10;;;;;;;15.61;74.02;100189.15;437427;1248;140284;-65
2023/05/20 23:17:28;;;;;;;12.30;5.10;;;;;;;15.52;73.23;100189.33;437367;1253;139861;-64
2023/05/20 23:27:34;;;;;;;6.40;5.10;;;;;;;15.43;72.61;100175.73;437139;1251;140116;-63
2023/05/20 23:37:40;;;;;;;5.80;5.30;;;;;;;15.34;72.08;100173.91;437196;1251;138914;-64
2023/05/20 23:47:46;;;;;;;6.60;5.60;;;;;;;15.21;71.86;100171.30;437366;1253;139834;-65
2023/05/20 23:57:52;;;;;;;8.80;5.30;;;;;;;15.11;71.54;100172.22;437216;1250;140473;-66
